Time;durP1;ratioP1;P1;durP2;ratioP2;P2;SDS_P1;SDS_P2;PMS_P1;PMS_P2;Temp;Humidity;BMP_temperature;BMP_pressure;BME280_temperature;BME280_humidity;BME280_pressure;Samples;Min_cycle;Max_cycle;Signal;HPM_P1;HPM_P2
2023/07/28 00:00:20;;;;;;;1.43;1.43;;;;;;;;;;4993780;28;20213;-85
2023/07/28 00:02:46;;;;;;;4.30;1.57;;;;;;;;;;5010153;28;20251;-88
2023/07/28 00:05:14;;;;;;;2.10;1.40;;;;;;;;;;5009977;28;20270;-86
2023/07/28 00:07:41;;;;;;;1.67;1.57;;;;;;;;;;5012033;28;20271;-85
2023/07/28 00:10:10;;;;;;;1.20;1.20;;;;;;;;;;5010892;28;20692;-86
2023/07/28 00:12:36;;;;;;;3.60;1.67;;;;;;;;;;4994731;28;20221;-86
2023/07/28 00:15:04;;;;;;;1.50;1.40;;;;;;;;;;4990920;28;20669;-86
2023/07/28 00:17:31;;;;;;;1.60;1.60;;;;;;;;;;4990418;28;20528;-85
2023/07/28 00:19:59;;;;;;;2.00;1.90;;;;;;;;;;4990341;28;20198;-87
2023/07/28 00:22:26;;;;;;;1.43;1.43;;;;;;;;;;4990177;28;20291;-86
2023/07/28 00:24:53;;;;;;;5.57;1.60;;;;;;;;;;4990330;28;20197;-88
2023/07/28 00:27:21;;;;;;;2.20;1.30;;;;;;;;;;4990705;28;20777;-87
2023/07/28 00:29:48;;;;;;;1.53;1.53;;;;;;;;;;4990712;28;20197;-86
2023/07/28 00:32:15;;;;;;;1.53;1.43;;;;;;;;;;5004758;28;20220;-86
2023/07/28 00:34:44;;;;;;;1.57;1.50;;;;;;;;;;5010160;28;20211;-86
2023/07/28 00:37:11;;;;;;;1.40;1.40;;;;;;;;;;5010301;28;20230;-87
2023/07/28 00:39:38;;;;;;;1.03;1.03;;;;;;;;;;5010510;28;20210;-84
2023/07/28 00:42:05;;;;;;;1.47;1.37;;;;;;;;;;5013270;28;20201;-86
2023/07/28 00:44:34;;;;;;;5.33;1.30;;;;;;;;;;5019362;28;20288;-85
2023/07/28 00:47:00;;;;;;;1.20;1.20;;;;;;;;;;5019408;28;20665;-86
2023/07/28 00:49:28;;;;;;;1.73;1.63;;;;;;;;;;5012019;28;20264;-85
2023/07/28 00:51:58;;;;;;;1.80;1.70;;;;;;;;;;5010045;28;20204;-87
2023/07/28 00:54:25;;;;;;;2.10;2.00;;;;;;;;;;5009215;28;20222;-86
2023/07/28 00:56:52;;;;;;;1.73;1.63;;;;;;;;;;5009094;28;20680;-87
2023/07/28 00:59:39;;;;;;;1.50;1.50;;;;;;;;;;5009431;28;20204;-87
2023/07/28 01:02:14;;;;;;;1.50;1.50;;;;;;;;;;4941145;29;20215;-86
2023/07/28 01:04:42;;;;;;;2.33;2.20;;;;;;;;;;5002534;28;20201;-88
2023/07/28 01:07:10;;;;;;;2.30;2.20;;;;;;;;;;4993937;28;20385;-86
2023/07/28 01:09:41;;;;;;;4.67;2.50;;;;;;;;;;4990668;28;20267;-87
2023/07/28 01:12:09;;;;;;;2.57;2.47;;;;;;;;;;4990481;28;20283;-86
2023/07/28 01:14:35;;;;;;;2.27;2.17;;;;;;;;;;4989687;28;20244;-87
2023/07/28 01:17:02;;;;;;;2.17;2.07;;;;;;;;;;4989472;28;20204;-86
2023/07/28 01:19:31;;;;;;;2.07;1.97;;;;;;;;;;4990002;28;20306;-87
2023/07/28 01:22:06;;;;;;;2.93;2.77;;;;;;;;;;4990155;28;20212;-87
2023/07/28 01:24:39;;;;;;;3.40;3.20;;;;;;;;;;4990562;28;20630;-86
2023/07/28 01:27:09;;;;;;;3.10;2.80;;;;;;;;;;4992266;28;20629;-87
2023/07/28 01:29:39;;;;;;;3.27;3.07;;;;;;;;;;4990328;28;20593;-87
2023/07/28 01:32:06;;;;;;;3.20;2.90;;;;;;;;;;5001481;28;20234;-86
2023/07/28 01:34:34;;;;;;;4.53;2.73;;;;;;;;;;5009397;28;20263;-86
2023/07/28 01:37:01;;;;;;;3.20;3.00;;;;;;;;;;5008815;28;20224;-86
2023/07/28 01:39:29;;;;;;;2.97;2.87;;;;;;;;;;5008224;28;20670;-85
2023/07/28 01:41:55;;;;;;;4.70;3.03;;;;;;;;;;5008589;28;20210;-86
2023/07/28 01:44:24;;;;;;;3.30;3.07;;;;;;;;;;5008383;28;20250;-87
2023/07/28 01:46:50;;;;;;;3.37;3.17;;;;;;;;;;5008057;28;20292;-87
2023/07/28 01:49:17;;;;;;;3.80;3.40;;;;;;;;;;5007803;28;20207;-86
2023/07/28 01:51:44;;;;;;;4.80;2.93;;;;;;;;;;5008410;28;20773;-87
2023/07/28 01:54:12;;;;;;;3.40;3.20;;;;;;;;;;5008026;28;20307;-88
2023/07/28 01:56:39;;;;;;;3.23;2.97;;;;;;;;;;5008619;28;20290;-86
2023/07/28 01:59:06;;;;;;;3.53;2.43;;;;;;;;;;5009164;28;20657;-85
2023/07/28 02:01:34;;;;;;;3.53;3.30;;;;;;;;;;5008787;28;20277;-86
2023/07/28 02:04:02;;;;;;;3.60;3.40;;;;;;;;;;5010195;28;20206;-87
2023/07/28 02:06:31;;;;;;;3.40;3.20;;;;;;;;;;5009792;28;20236;-86
2023/07/28 02:08:58;;;;;;;2.87;2.67;;;;;;;;;;5010208;28;20274;-86
2023/07/28 02:11:25;;;;;;;2.60;2.50;;;;;;;;;;5010268;28;20197;-84
2023/07/28 02:13:52;;;;;;;2.33;2.23;;;;;;;;;;5008723;28;20196;-87
2023/07/28 02:16:19;;;;;;;2.50;2.40;;;;;;;;;;5008903;28;20201;-86
2023/07/28 02:18:48;;;;;;;5.53;3.67;;;;;;;;;;5009079;28;20205;-86
2023/07/28 02:21:19;;;;;;;40.17;19.60;;;;;;;;;;5008331;28;20233;-87
2023/07/28 02:23:52;;;;;;;6.90;3.93;;;;;;;;;;5011036;28;20261;-86
2023/07/28 02:26:20;;;;;;;2.83;2.63;;;;;;;;;;5014931;28;20213;-85
2023/07/28 02:28:47;;;;;;;3.50;3.30;;;;;;;;;;5017133;28;20281;-85
2023/07/28 02:31:15;;;;;;;2.60;2.50;;;;;;;;;;5021764;28;20211;-85
2023/07/28 02:33:44;;;;;;;2.63;2.47;;;;;;;;;;5018369;28;20225;-86
2023/07/28 02:36:13;;;;;;;2.70;2.60;;;;;;;;;;5008716;28;20220;-87
2023/07/28 02:38:40;;;;;;;4.77;3.00;;;;;;;;;;5008805;28;20214;-86
2023/07/28 02:41:07;;;;;;;2.53;2.33;;;;;;;;;;5007534;28;20267;-86
2023/07/28 02:43:37;;;;;;;2.83;2.63;;;;;;;;;;5009465;28;20201;-86
2023/07/28 02:46:04;;;;;;;2.43;2.33;;;;;;;;;;5017628;28;20191;-85
2023/07/28 02:48:32;;;;;;;3.80;2.90;;;;;;;;;;5028702;28;20301;-85
2023/07/28 02:50:59;;;;;;;2.67;2.47;;;;;;;;;;5014361;28;20676;-87
2023/07/28 02:53:29;;;;;;;3.07;2.87;;;;;;;;;;5009912;28;20200;-86
2023/07/28 02:55:59;;;;;;;2.60;2.40;;;;;;;;;;5009040;28;20587;-87
2023/07/28 02:58:26;;;;;;;2.43;2.23;;;;;;;;;;5011642;28;20537;-84
2023/07/28 03:00:54;;;;;;;2.67;2.57;;;;;;;;;;5012153;28;20193;-86
2023/07/28 03:03:24;;;;;;;2.73;2.57;;;;;;;;;;5012387;28;20581;-87
2023/07/28 03:05:53;;;;;;;3.43;2.37;;;;;;;;;;5011471;28;20219;-87
2023/07/28 03:08:21;;;;;;;2.50;2.40;;;;;;;;;;5010252;28;20256;-86
2023/07/28 03:10:50;;;;;;;2.37;2.20;;;;;;;;;;5011547;28;20240;-86
2023/07/28 03:13:17;;;;;;;2.53;2.40;;;;;;;;;;5011537;28;20227;-87
2023/07/28 03:15:44;;;;;;;3.20;2.37;;;;;;;;;;5010616;28;20228;-87
2023/07/28 03:18:10;;;;;;;7.10;2.40;;;;;;;;;;5011015;28;20697;-87
2023/07/28 03:20:37;;;;;;;2.70;2.10;;;;;;;;;;5011724;28;20204;-86
2023/07/28 03:23:04;;;;;;;3.23;2.93;;;;;;;;;;5011793;28;20232;-86
2023/07/28 03:25:31;;;;;;;3.37;3.07;;;;;;;;;;5010675;28;20702;-86
2023/07/28 03:28:00;;;;;;;3.77;3.43;;;;;;;;;;5012052;28;20255;-86
2023/07/28 03:30:27;;;;;;;2.73;2.63;;;;;;;;;;5012053;28;20243;-86
2023/07/28 03:32:57;;;;;;;2.70;2.50;;;;;;;;;;5016902;28;20272;-86
2023/07/28 03:35:24;;;;;;;3.10;2.87;;;;;;;;;;5016285;28;20257;-85
2023/07/28 03:37:51;;;;;;;3.50;3.13;;;;;;;;;;5016438;28;20231;-87
2023/07/28 03:40:20;;;;;;;2.33;2.23;;;;;;;;;;5016261;28;20270;-84
2023/07/28 03:42:48;;;;;;;2.57;2.47;;;;;;;;;;5015912;28;20304;-85
2023/07/28 03:45:16;;;;;;;2.83;2.63;;;;;;;;;;5014330;28;20241;-85
2023/07/28 03:47:43;;;;;;;2.80;2.60;;;;;;;;;;5014184;28;20238;-87
2023/07/28 03:50:11;;;;;;;2.40;2.22;;;;;;;;;;5015421;28;20987;-86
2023/07/28 03:52:39;;;;;;;2.58;2.40;;;;;;;;;;5015847;28;20675;-84
2023/07/28 03:55:06;;;;;;;8.70;6.38;;;;;;;;;;5014926;28;20294;-86
2023/07/28 03:57:35;;;;;;;5.72;3.90;;;;;;;;;;5015227;28;20203;-86
2023/07/28 04:00:08;;;;;;;2.40;2.20;;;;;;;;;;5016293;28;20201;-86
2023/07/28 04:02:36;;;;;;;3.03;2.22;;;;;;;;;;5015453;28;20633;-86
2023/07/28 04:05:03;;;;;;;3.03;2.20;;;;;;;;;;5013303;28;20255;-86
2023/07/28 04:07:30;;;;;;;2.40;2.30;;;;;;;;;;5012013;28;20236;-88
2023/07/28 04:09:58;;;;;;;2.70;2.60;;;;;;;;;;5013846;28;20225;-86
2023/07/28 04:12:25;;;;;;;2.80;2.60;;;;;;;;;;5011807;28;20305;-87
2023/07/28 04:14:51;;;;;;;2.40;2.30;;;;;;;;;;5011753;28;20201;-87
2023/07/28 04:17:18;;;;;;;2.95;2.47;;;;;;;;;;5010375;28;20247;-87
2023/07/28 04:19:48;;;;;;;3.60;2.78;;;;;;;;;;5010736;28;20699;-86
2023/07/28 04:22:21;;;;;;;2.85;2.65;;;;;;;;;;5016021;28;20193;-87
2023/07/28 04:24:48;;;;;;;2.38;2.25;;;;;;;;;;5020045;28;20211;-87
2023/07/28 04:27:18;;;;;;;2.60;2.30;;;;;;;;;;5019698;28;20261;-88
2023/07/28 04:29:47;;;;;;;2.70;2.60;;;;;;;;;;5010151;28;20284;-86
2023/07/28 04:32:13;;;;;;;3.85;2.42;;;;;;;;;;5009443;28;20291;-86
2023/07/28 04:34:40;;;;;;;4.10;2.60;;;;;;;;;;5010041;28;20208;-87
2023/07/28 04:37:08;;;;;;;3.92;2.78;;;;;;;;;;5009108;28;20732;-87
2023/07/28 04:39:38;;;;;;;2.33;2.15;;;;;;;;;;5009003;28;20197;-88
2023/07/28 04:42:06;;;;;;;3.03;2.80;;;;;;;;;;5009734;28;20697;-87
2023/07/28 04:44:34;;;;;;;2.28;2.17;;;;;;;;;;5009390;28;20205;-88
2023/07/28 04:47:04;;;;;;;2.45;2.35;;;;;;;;;;5009997;28;20208;-88
2023/07/28 04:49:31;;;;;;;2.33;2.22;;;;;;;;;;5010140;28;20224;-87
2023/07/28 04:51:59;;;;;;;2.97;2.78;;;;;;;;;;5008840;28;20216;-88
2023/07/28 04:54:28;;;;;;;2.83;2.65;;;;;;;;;;5010100;28;20255;-87
2023/07/28 04:56:54;;;;;;;2.15;2.05;;;;;;;;;;5009595;28;20320;-87
2023/07/28 04:59:21;;;;;;;2.53;2.42;;;;;;;;;;5009290;28;20216;-86
2023/07/28 05:01:48;;;;;;;2.03;2.03;;;;;;;;;;5010027;28;20355;-87
2023/07/28 05:04:15;;;;;;;2.60;2.50;;;;;;;;;;5009598;28;20197;-87
2023/07/28 05:06:42;;;;;;;2.30;2.20;;;;;;;;;;5009599;28;20197;-87
2023/07/28 05:09:13;;;;;;;2.30;2.20;;;;;;;;;;5009480;28;20612;-88
2023/07/28 05:11:42;;;;;;;2.45;2.33;;;;;;;;;;5009649;28;20723;-87
2023/07/28 05:14:10;;;;;;;2.38;2.17;;;;;;;;;;5009775;28;20196;-87
2023/07/28 05:16:38;;;;;;;2.17;2.08;;;;;;;;;;5009540;28;20206;-86
2023/07/28 05:19:06;;;;;;;2.13;2.03;;;;;;;;;;5009133;28;20688;-88
2023/07/28 05:21:35;;;;;;;1.90;1.90;;;;;;;;;;5009603;28;20235;-86
2023/07/28 05:24:03;;;;;;;3.53;2.33;;;;;;;;;;5010710;28;20279;-87
2023/07/28 05:26:30;;;;;;;2.08;1.90;;;;;;;;;;5010161;28;20215;-89
2023/07/28 05:28:58;;;;;;;2.50;2.40;;;;;;;;;;5009579;28;20696;-87
2023/07/28 05:31:25;;;;;;;2.22;2.13;;;;;;;;;;5009527;28;20197;-88
2023/07/28 05:33:53;;;;;;;1.90;1.90;;;;;;;;;;5011021;28;20204;-87
2023/07/28 05:36:20;;;;;;;2.78;2.30;;;;;;;;;;5010721;28;20342;-89
2023/07/28 05:38:48;;;;;;;4.65;2.80;;;;;;;;;;5011063;28;20223;-87
2023/07/28 05:41:16;;;;;;;2.30;2.20;;;;;;;;;;5010124;28;20283;-85
2023/07/28 05:43:45;;;;;;;4.20;2.78;;;;;;;;;;5021456;28;20207;-87
2023/07/28 05:46:13;;;;;;;3.15;2.60;;;;;;;;;;5012654;28;20258;-86
2023/07/28 05:48:40;;;;;;;3.90;2.55;;;;;;;;;;5028326;28;20244;-86
2023/07/28 05:51:10;;;;;;;5.13;2.28;;;;;;;;;;5026002;28;20204;-87
2023/07/28 05:53:39;;;;;;;2.53;2.33;;;;;;;;;;5012116;28;20227;-87
2023/07/28 05:56:06;;;;;;;2.28;2.17;;;;;;;;;;5010293;28;20264;-87
2023/07/28 05:58:33;;;;;;;2.67;2.42;;;;;;;;;;5011123;28;20250;-87
2023/07/28 06:01:00;;;;;;;2.30;2.10;;;;;;;;;;5010161;28;20241;-88
2023/07/28 06:03:30;;;;;;;2.42;2.20;;;;;;;;;;5010508;28;20240;-86
2023/07/28 06:05:58;;;;;;;2.80;2.13;;;;;;;;;;5011110;28;20203;-86
2023/07/28 06:08:25;;;;;;;2.72;2.40;;;;;;;;;;5011135;28;20231;-85
2023/07/28 06:10:52;;;;;;;2.47;2.38;;;;;;;;;;5008957;28;20208;-87
2023/07/28 06:13:20;;;;;;;6.15;2.40;;;;;;;;;;5011352;28;20220;-88
2023/07/28 06:15:47;;;;;;;2.50;2.20;;;;;;;;;;5008584;28;20215;-86
2023/07/28 06:18:17;;;;;;;4.38;2.50;;;;;;;;;;4995939;28;20216;-85
2023/07/28 06:20:45;;;;;;;4.20;3.00;;;;;;;;;;5003423;28;20201;-88
2023/07/28 06:23:13;;;;;;;3.70;2.85;;;;;;;;;;5013920;28;20213;-87
2023/07/28 06:25:44;;;;;;;2.78;2.67;;;;;;;;;;5002605;28;20280;-87
2023/07/28 06:28:14;;;;;;;2.20;2.10;;;;;;;;;;5000833;28;20248;-89
2023/07/28 06:30:42;;;;;;;2.40;2.20;;;;;;;;;;4999320;28;20312;-85
2023/07/28 06:33:10;;;;;;;2.50;2.30;;;;;;;;;;5000383;28;20204;-88
2023/07/28 06:35:40;;;;;;;7.53;2.97;;;;;;;;;;5013903;28;20564;-87
2023/07/28 06:38:13;;;;;;;2.70;2.50;;;;;;;;;;5014509;28;20192;-87
2023/07/28 06:40:56;;;;;;;3.83;2.00;;;;;;;;;;5012048;28;20272;-87
2023/07/28 06:43:27;;;;;;;3.80;2.88;;;;;;;;;;5012367;28;20240;-86
2023/07/28 06:45:54;;;;;;;3.40;2.40;;;;;;;;;;5011539;28;20220;-86
2023/07/28 06:48:22;;;;;;;2.67;2.47;;;;;;;;;;5003706;28;20247;-85
2023/07/28 06:50:49;;;;;;;6.80;2.40;;;;;;;;;;5001474;28;20215;-86
2023/07/28 06:53:18;;;;;;;2.30;2.13;;;;;;;;;;5001412;28;20201;-88
2023/07/28 06:55:45;;;;;;;2.70;2.50;;;;;;;;;;5004540;28;20470;-86
2023/07/28 06:58:14;;;;;;;2.45;2.35;;;;;;;;;;5008261;28;20653;-86
2023/07/28 07:00:41;;;;;;;2.50;2.40;;;;;;;;;;5008255;28;20223;-87
2023/07/28 07:03:08;;;;;;;2.15;2.05;;;;;;;;;;5001022;28;20247;-85
2023/07/28 07:05:43;;;;;;;2.10;2.00;;;;;;;;;;5008373;28;20215;-85
2023/07/28 07:08:11;;;;;;;1.98;1.88;;;;;;;;;;5003301;28;20231;-87
2023/07/28 07:10:39;;;;;;;5.25;2.13;;;;;;;;;;4992660;28;20657;-86
2023/07/28 07:13:06;;;;;;;3.97;2.25;;;;;;;;;;4992907;28;20220;-85
2023/07/28 07:15:35;;;;;;;3.65;2.13;;;;;;;;;;4993470;28;20204;-86
2023/07/28 07:18:03;;;;;;;3.47;1.95;;;;;;;;;;4993683;28;20212;-85
2023/07/28 07:20:37;;;;;;;2.17;2.08;;;;;;;;;;5002404;28;20689;-87
2023/07/28 07:23:04;;;;;;;2.05;1.95;;;;;;;;;;5010006;28;20214;-86
2023/07/28 07:25:31;;;;;;;2.10;1.98;;;;;;;;;;5010642;28;20208;-88
2023/07/28 07:28:00;;;;;;;2.45;2.25;;;;;;;;;;5010609;28;20230;-88
2023/07/28 07:30:28;;;;;;;3.60;2.00;;;;;;;;;;5008886;28;20688;-89
2023/07/28 07:32:58;;;;;;;2.88;2.00;;;;;;;;;;5006538;28;20274;-87
2023/07/28 07:35:25;;;;;;;2.20;1.92;;;;;;;;;;5010196;28;20236;-89
2023/07/28 07:37:52;;;;;;;1.75;1.70;;;;;;;;;;5009765;28;20739;-88
2023/07/28 07:40:20;;;;;;;2.55;2.45;;;;;;;;;;5010379;28;20239;-87
2023/07/28 07:42:48;;;;;;;3.70;1.92;;;;;;;;;;5008494;28;20216;-87
2023/07/28 07:45:18;;;;;;;3.72;2.50;;;;;;;;;;5010092;28;20638;-89
2023/07/28 07:47:45;;;;;;;2.00;1.90;;;;;;;;;;5009719;28;20220;-89
2023/07/28 07:50:13;;;;;;;2.20;2.10;;;;;;;;;;5009725;28;20290;-88
2023/07/28 07:52:40;;;;;;;2.15;2.05;;;;;;;;;;5011045;28;20265;-86
2023/07/28 07:55:08;;;;;;;2.40;2.30;;;;;;;;;;5009960;28;20232;-86
2023/07/28 07:57:35;;;;;;;5.50;1.73;;;;;;;;;;5009430;28;20255;-87
2023/07/28 08:00:05;;;;;;;5.53;1.80;;;;;;;;;;5010546;28;20298;-87
2023/07/28 08:02:34;;;;;;;5.35;2.25;;;;;;;;;;5008405;28;20659;-88
2023/07/28 08:05:04;;;;;;;3.35;1.80;;;;;;;;;;5010580;28;20251;-88
2023/07/28 08:07:31;;;;;;;2.17;2.08;;;;;;;;;;5009521;28;20693;-90
2023/07/28 08:09:58;;;;;;;1.90;1.90;;;;;;;;;;5010523;28;20617;-87
2023/07/28 08:12:27;;;;;;;2.20;2.10;;;;;;;;;;5009931;28;20730;-88
2023/07/28 08:14:54;;;;;;;2.40;2.30;;;;;;;;;;5010927;28;20743;-88
2023/07/28 08:17:21;;;;;;;3.20;2.30;;;;;;;;;;5008792;28;20318;-87
2023/07/28 08:19:50;;;;;;;5.15;2.17;;;;;;;;;;5010833;28;20714;-86
2023/07/28 08:22:17;;;;;;;3.00;2.10;;;;;;;;;;5005403;28;20244;-87
2023/07/28 08:24:44;;;;;;;2.40;2.30;;;;;;;;;;5009198;28;20805;-88
2023/07/28 08:27:12;;;;;;;1.95;1.85;;;;;;;;;;5010367;28;20295;-89
2023/07/28 08:29:41;;;;;;;2.65;2.45;;;;;;;;;;5018632;28;20350;-89
2023/07/28 08:32:08;;;;;;;2.45;2.25;;;;;;;;;;5008284;28;20227;-89
2023/07/28 08:34:38;;;;;;;2.30;2.08;;;;;;;;;;4989912;28;20225;-88
2023/07/28 08:37:07;;;;;;;2.08;2.08;;;;;;;;;;4989543;28;20239;-89
2023/07/28 08:39:45;;;;;;;2.40;2.30;;;;;;;;;;4989415;28;20774;-89
2023/07/28 08:42:13;;;;;;;2.25;2.15;;;;;;;;;;4990324;28;20346;-90
2023/07/28 08:44:41;;;;;;;2.30;2.10;;;;;;;;;;4988841;28;20232;-88
2023/07/28 08:47:08;;;;;;;2.35;2.25;;;;;;;;;;4989950;28;20257;-90
2023/07/28 08:49:38;;;;;;;3.17;2.67;;;;;;;;;;5001141;28;20298;-89
2023/07/28 08:52:09;;;;;;;3.08;2.63;;;;;;;;;;5008404;28;20278;-89
2023/07/28 08:54:36;;;;;;;4.63;2.45;;;;;;;;;;5008893;28;20735;-89
2023/07/28 08:57:03;;;;;;;7.93;2.83;;;;;;;;;;5008665;28;20244;-89
2023/07/28 08:59:32;;;;;;;7.43;2.28;;;;;;;;;;5006925;28;20237;-89
2023/07/28 09:01:59;;;;;;;2.53;2.33;;;;;;;;;;5010263;28;20220;-89
2023/07/28 09:04:28;;;;;;;3.08;2.17;;;;;;;;;;5019040;28;20244;-88
2023/07/28 09:06:56;;;;;;;4.00;2.45;;;;;;;;;;5026187;28;20620;-88
2023/07/28 09:09:33;;;;;;;2.63;2.50;;;;;;;;;;5022254;28;20295;-90
2023/07/28 09:12:04;;;;;;;2.28;2.17;;;;;;;;;;5009239;28;20243;-89
2023/07/28 09:14:34;;;;;;;2.55;2.45;;;;;;;;;;5011778;28;20222;-88
2023/07/28 09:17:08;;;;;;;2.30;2.20;;;;;;;;;;5010524;28;20852;-89
2023/07/28 09:19:35;;;;;;;2.08;1.98;;;;;;;;;;5006952;28;20232;-88
2023/07/28 09:22:04;;;;;;;3.05;2.53;;;;;;;;;;5009454;28;20736;-89
2023/07/28 09:24:34;;;;;;;2.30;2.20;;;;;;;;;;5010045;28;20556;-90
2023/07/28 09:27:01;;;;;;;2.42;2.15;;;;;;;;;;5009687;28;20282;-92
2023/07/28 09:29:29;;;;;;;2.55;2.38;;;;;;;;;;5007016;28;20319;-90
2023/07/28 09:32:05;;;;;;;2.35;2.20;;;;;;;;;;5009089;28;20224;-88
2023/07/28 09:34:33;;;;;;;2.63;2.08;;;;;;;;;;5008297;28;20465;-89
2023/07/28 09:37:00;;;;;;;3.97;2.10;;;;;;;;;;5008612;28;20264;-89
2023/07/28 09:39:28;;;;;;;2.13;2.03;;;;;;;;;;5007717;28;20235;-87
2023/07/28 09:41:59;;;;;;;1.98;1.55;;;;;;;;;;5008989;28;20232;-89
2023/07/28 09:44:26;;;;;;;2.03;1.92;;;;;;;;;;5007289;28;20280;-90
2023/07/28 09:46:55;;;;;;;2.38;2.20;;;;;;;;;;5009514;28;20239;-88
2023/07/28 09:49:24;;;;;;;2.15;2.05;;;;;;;;;;5008507;28;20256;-88
2023/07/28 09:51:56;;;;;;;1.90;1.80;;;;;;;;;;5008824;28;20224;-89
2023/07/28 09:54:28;;;;;;;2.35;2.15;;;;;;;;;;5009286;28;20701;-89
2023/07/28 09:57:00;;;;;;;3.17;2.08;;;;;;;;;;5009099;28;20401;-90
2023/07/28 09:59:31;;;;;;;2.17;1.90;;;;;;;;;;5007809;28;20485;-90
2023/07/28 10:02:00;;;;;;;1.73;1.73;;;;;;;;;;5008825;28;20235;-89
2023/07/28 10:04:27;;;;;;;2.22;2.13;;;;;;;;;;5009181;28;20633;-90
2023/07/28 10:06:56;;;;;;;2.08;1.85;;;;;;;;;;5014094;28;20328;-89
2023/07/28 10:09:24;;;;;;;1.77;1.77;;;;;;;;;;5015592;28;20236;-89
2023/07/28 10:11:56;;;;;;;6.63;2.22;;;;;;;;;;5032116;28;20284;-88
2023/07/28 10:14:30;;;;;;;2.72;2.00;;;;;;;;;;5027410;28;20728;-89
2023/07/28 10:17:01;;;;;;;2.45;1.95;;;;;;;;;;5013017;28;20283;-89
2023/07/28 10:19:29;;;;;;;1.40;1.40;;;;;;;;;;5012363;28;20282;-89
2023/07/28 10:22:09;;;;;;;2.47;2.20;;;;;;;;;;5011893;28;20232;-90
2023/07/28 10:24:52;;;;;;;5.18;1.98;;;;;;;;;;5011894;28;20224;-88
2023/07/28 10:27:36;;;;;;;1.88;1.63;;;;;;;;;;5011789;28;20243;-91
2023/07/28 10:30:06;;;;;;;1.80;1.70;;;;;;;;;;5010036;28;20232;-88
2023/07/28 10:32:38;;;;;;;2.35;1.77;;;;;;;;;;5010517;28;20228;-88
2023/07/28 10:35:08;;;;;;;2.28;2.17;;;;;;;;;;5012526;28;20225;-88
2023/07/28 10:37:35;;;;;;;1.80;1.70;;;;;;;;;;5010530;28;20231;-88
2023/07/28 10:40:22;;;;;;;1.65;1.65;;;;;;;;;;4995755;28;20724;-89
2023/07/28 10:42:49;;;;;;;2.10;1.85;;;;;;;;;;4991930;28;20232;-87
2023/07/28 10:45:18;;;;;;;1.77;1.77;;;;;;;;;;4990612;28;20241;-89
2023/07/28 10:47:47;;;;;;;2.25;2.15;;;;;;;;;;4992005;28;20729;-88
2023/07/28 10:50:14;;;;;;;2.95;2.10;;;;;;;;;;4994153;28;20237;-88
2023/07/28 10:52:42;;;;;;;2.03;1.92;;;;;;;;;;4992519;28;20222;-89
2023/07/28 10:55:15;;;;;;;1.80;1.75;;;;;;;;;;4994014;28;20225;-88
2023/07/28 10:57:46;;;;;;;2.28;2.08;;;;;;;;;;4992837;28;20226;-87
2023/07/28 11:00:15;;;;;;;1.38;1.27;;;;;;;;;;5000899;28;20334;-87
2023/07/28 11:02:45;;;;;;;3.22;1.60;;;;;;;;;;5011661;28;20294;-90
2023/07/28 11:05:14;;;;;;;3.20;1.63;;;;;;;;;;5012748;28;20530;-89
2023/07/28 11:07:43;;;;;;;1.48;1.45;;;;;;;;;;5014671;28;20225;-89
2023/07/28 11:10:11;;;;;;;2.97;1.40;;;;;;;;;;5025432;28;20312;-88
2023/07/28 11:12:42;;;;;;;2.53;1.70;;;;;;;;;;5014094;28;20320;-88
2023/07/28 11:15:11;;;;;;;6.60;1.50;;;;;;;;;;5011252;28;20224;-88
2023/07/28 11:17:38;;;;;;;1.92;1.83;;;;;;;;;;5010053;28;20231;-88
2023/07/28 11:20:16;;;;;;;1.65;1.60;;;;;;;;;;5012250;28;20255;-88
2023/07/28 11:22:43;;;;;;;1.70;1.60;;;;;;;;;;5012736;28;20231;-89
2023/07/28 11:25:10;;;;;;;5.47;1.83;;;;;;;;;;5016547;28;20700;-87
2023/07/28 11:27:37;;;;;;;1.45;1.40;;;;;;;;;;5022772;28;20227;-86
2023/07/28 11:30:07;;;;;;;1.80;1.70;;;;;;;;;;5020766;28;20244;-86
2023/07/28 11:32:35;;;;;;;2.20;1.25;;;;;;;;;;5021520;28;20238;-87
2023/07/28 11:35:09;;;;;;;1.50;1.40;;;;;;;;;;5019276;28;20232;-86
2023/07/28 11:37:35;;;;;;;1.40;1.40;;;;;;;;;;5012765;28;20506;-87
2023/07/28 11:40:06;;;;;;;1.48;1.48;;;;;;;;;;5015497;28;20315;-86
2023/07/28 11:42:35;;;;;;;1.27;1.27;;;;;;;;;;5014495;28;20227;-87
2023/07/28 11:45:03;;;;;;;2.00;1.90;;;;;;;;;;5014757;28;20276;-87
2023/07/28 11:47:30;;;;;;;1.73;1.63;;;;;;;;;;5010080;28;20335;-87
2023/07/28 11:50:00;;;;;;;4.80;1.48;;;;;;;;;;5010820;28;20769;-86
2023/07/28 11:52:32;;;;;;;1.58;1.52;;;;;;;;;;5012002;28;20287;-86
2023/07/28 11:54:59;;;;;;;1.40;1.40;;;;;;;;;;5019112;28;20290;-86
2023/07/28 11:57:36;;;;;;;2.50;1.50;;;;;;;;;;5010963;28;20228;-83
2023/07/28 12:00:08;;;;;;;3.45;2.08;;;;;;;;;;5012432;28;20220;-86
2023/07/28 12:02:38;;;;;;;1.33;1.33;;;;;;;;;;5010286;28;20269;-84
2023/07/28 12:05:13;;;;;;;7.90;1.75;;;;;;;;;;5021426;28;20288;-86
2023/07/28 12:07:42;;;;;;;1.70;1.60;;;;;;;;;;5010732;28;20271;-87
2023/07/28 12:10:09;;;;;;;1.40;1.40;;;;;;;;;;5011680;28;20249;-86
2023/07/28 12:12:46;;;;;;;2.17;1.50;;;;;;;;;;5007350;28;20662;-89
2023/07/28 12:15:22;;;;;;;1.45;1.30;;;;;;;;;;4989915;28;20271;-89
2023/07/28 12:18:02;;;;;;;1.85;1.75;;;;;;;;;;4991958;28;20229;-86
2023/07/28 12:20:36;;;;;;;2.33;1.45;;;;;;;;;;5010426;28;20243;-89
2023/07/28 12:23:05;;;;;;;1.65;1.65;;;;;;;;;;5010257;28;20236;-88
2023/07/28 12:25:33;;;;;;;3.85;1.55;;;;;;;;;;5011103;28;20308;-89
2023/07/28 12:28:00;;;;;;;1.73;1.73;;;;;;;;;;5011646;28;20375;-89
2023/07/28 12:30:27;;;;;;;1.45;1.45;;;;;;;;;;5010458;28;20290;-88
2023/07/28 12:33:01;;;;;;;2.35;1.67;;;;;;;;;;5001089;28;20233;-89
2023/07/28 12:35:30;;;;;;;1.98;1.88;;;;;;;;;;5010262;28;20229;-89
2023/07/28 12:37:59;;;;;;;2.42;1.40;;;;;;;;;;5008888;28;20710;-88
2023/07/28 12:40:29;;;;;;;2.53;1.63;;;;;;;;;;5010743;28;20563;-88
2023/07/28 12:42:56;;;;;;;2.15;1.95;;;;;;;;;;5009585;28;20236;-89
2023/07/28 12:45:25;;;;;;;1.67;1.58;;;;;;;;;;5009337;28;20311;-88
2023/07/28 12:47:56;;;;;;;1.60;1.60;;;;;;;;;;5010387;28;20255;-88
2023/07/28 12:50:26;;;;;;;1.63;1.63;;;;;;;;;;5010504;28;20669;-89
2023/07/28 12:52:55;;;;;;;3.20;1.65;;;;;;;;;;4998315;28;20248;-88
2023/07/28 12:55:22;;;;;;;1.70;1.60;;;;;;;;;;5008622;28;20691;-87
2023/07/28 12:57:53;;;;;;;1.48;1.45;;;;;;;;;;5010454;28;20233;-89
2023/07/28 13:00:21;;;;;;;3.15;1.70;;;;;;;;;;5010364;28;20224;-90
2023/07/28 13:02:48;;;;;;;1.80;1.70;;;;;;;;;;5009748;28;20228;-86
2023/07/28 13:05:17;;;;;;;3.60;1.42;;;;;;;;;;5008043;28;20225;-87
2023/07/28 13:07:47;;;;;;;1.75;1.67;;;;;;;;;;5007681;28;20259;-87
2023/07/28 13:10:13;;;;;;;1.58;1.58;;;;;;;;;;5010305;28;20229;-84
2023/07/28 13:12:44;;;;;;;2.83;1.48;;;;;;;;;;5022282;28;20220;-86
2023/07/28 13:15:12;;;;;;;2.13;1.98;;;;;;;;;;5008429;28;20318;-84
2023/07/28 13:17:39;;;;;;;5.15;1.17;;;;;;;;;;5013592;28;20759;-87
2023/07/28 13:20:07;;;;;;;3.35;2.00;;;;;;;;;;5011612;28;20354;-85
2023/07/28 13:22:37;;;;;;;1.67;1.58;;;;;;;;;;5010245;28;20263;-86
2023/07/28 13:25:04;;;;;;;1.27;1.15;;;;;;;;;;5008207;28;20221;-86
2023/07/28 13:27:31;;;;;;;3.30;1.45;;;;;;;;;;5008681;28;20232;-89
2023/07/28 13:29:59;;;;;;;11.40;1.73;;;;;;;;;;5010251;28;20334;-87
2023/07/28 13:32:29;;;;;;;3.20;1.40;;;;;;;;;;5017681;28;20541;-86
2023/07/28 13:34:58;;;;;;;2.45;1.35;;;;;;;;;;5010918;28;20320;-87
2023/07/28 13:37:30;;;;;;;7.72;1.60;;;;;;;;;;5007766;28;20312;-87
2023/07/28 13:39:57;;;;;;;1.30;1.30;;;;;;;;;;5007696;28;20232;-88
2023/07/28 13:42:24;;;;;;;1.45;1.38;;;;;;;;;;5008600;28;20216;-88
2023/07/28 13:44:52;;;;;;;1.88;1.77;;;;;;;;;;5016568;28;20236;-86
2023/07/28 13:47:19;;;;;;;1.35;1.35;;;;;;;;;;5008033;28;20533;-86
2023/07/28 13:49:50;;;;;;;2.17;1.40;;;;;;;;;;5007779;28;20263;-87
2023/07/28 13:52:17;;;;;;;1.40;1.40;;;;;;;;;;5007445;28;20303;-87
2023/07/28 13:54:45;;;;;;;1.38;1.38;;;;;;;;;;5008778;28;20252;-88
2023/07/28 13:57:14;;;;;;;1.45;1.45;;;;;;;;;;5008356;28;20240;-87
2023/07/28 13:59:41;;;;;;;1.50;1.50;;;;;;;;;;5008914;28;20225;-87
2023/07/28 14:02:10;;;;;;;3.10;1.10;;;;;;;;;;5013670;28;20306;-87
2023/07/28 14:04:37;;;;;;;6.70;1.67;;;;;;;;;;5007723;28;20324;-86
2023/07/28 14:07:09;;;;;;;1.73;1.30;;;;;;;;;;5008311;28;20235;-89
2023/07/28 14:09:42;;;;;;;1.80;1.70;;;;;;;;;;5009011;28;20278;-89
2023/07/28 14:12:18;;;;;;;3.92;1.70;;;;;;;;;;5008730;28;20239;-89
2023/07/28 14:14:45;;;;;;;1.25;1.25;;;;;;;;;;5009260;28;20696;-90
2023/07/28 14:17:19;;;;;;;1.75;1.65;;;;;;;;;;5008851;28;20232;-90
2023/07/28 14:19:48;;;;;;;2.60;1.35;;;;;;;;;;5009922;28;20301;-89
2023/07/28 14:22:28;;;;;;;1.55;1.42;;;;;;;;;;5013096;28;20228;-89
2023/07/28 14:25:00;;;;;;;3.40;1.52;;;;;;;;;;5026975;28;20307;-90
2023/07/28 14:27:27;;;;;;;1.70;1.70;;;;;;;;;;5016858;28;20225;-91
2023/07/28 14:29:55;;;;;;;1.50;1.50;;;;;;;;;;5008210;28;20228;-90
2023/07/28 14:32:27;;;;;;;1.52;1.42;;;;;;;;;;5007847;28;20229;-90
2023/07/28 14:34:59;;;;;;;1.73;1.63;;;;;;;;;;5008119;28;20229;-90
2023/07/28 14:37:30;;;;;;;1.60;1.50;;;;;;;;;;5005170;28;20359;-89
2023/07/28 14:40:03;;;;;;;1.35;1.35;;;;;;;;;;5008208;28;20306;-87
2023/07/28 14:42:38;;;;;;;1.77;1.67;;;;;;;;;;5007930;28;20232;-89
2023/07/28 14:45:06;;;;;;;1.30;1.25;;;;;;;;;;5008598;28;20238;-89
2023/07/28 14:47:34;;;;;;;1.00;1.00;;;;;;;;;;5007414;28;20285;-89
2023/07/28 14:50:02;;;;;;;1.30;1.30;;;;;;;;;;5007641;28;20287;-89
2023/07/28 14:52:46;;;;;;;3.72;1.30;;;;;;;;;;5000853;28;20631;-88